createdAt,value
2023-03-20T00:00:39.764Z,6.85
2023-03-20T00:04:43.833Z,6.89
2023-03-20T00:08:48.225Z,6.98
2023-03-20T00:12:51.802Z,7.03
2023-03-20T00:16:54.508Z,6.99
2023-03-20T00:20:58.528Z,7.01
2023-03-20T00:25:01.283Z,6.96
2023-03-20T00:29:05.807Z,6.95
2023-03-20T00:33:11.473Z,6.96
2023-03-20T00:37:15.565Z,6.88
2023-03-20T00:41:24.792Z,6.88
2023-03-20T00:45:28.295Z,6.92
2023-03-20T00:49:33.009Z,6.96
2023-03-20T00:53:37.671Z,6.88
2023-03-20T00:57:44.094Z,6.91
2023-03-20T01:01:47.662Z,6.91
2023-03-20T01:05:51.657Z,6.92
2023-03-20T01:09:56.223Z,6.90
2023-03-20T01:13:58.973Z,6.91
2023-03-20T01:18:01.644Z,6.89
2023-03-20T01:22:04.424Z,6.89
2023-03-20T01:26:21.348Z,6.78
2023-03-20T01:30:25.836Z,6.67
2023-03-20T01:34:28.773Z,6.61
2023-03-20T01:38:31.476Z,6.56
2023-03-20T01:42:35.630Z,6.51
2023-03-20T01:46:40.543Z,6.51
2023-03-20T01:50:43.244Z,6.44
2023-03-20T01:54:45.963Z,6.37
2023-03-20T01:58:53.481Z,6.37
2023-03-20T02:02:57.017Z,6.28
2023-03-20T02:06:59.786Z,6.25
2023-03-20T02:11:03.155Z,6.18
2023-03-20T02:15:09.069Z,6.11
2023-03-20T02:19:21.634Z,6.05
2023-03-20T02:23:58.699Z,6.04
2023-03-20T02:28:24.727Z,6.00
2023-03-20T02:33:11.206Z,6.07
2023-03-20T02:37:51.345Z,6.15
2023-03-20T02:42:01.491Z,6.18
2023-03-20T02:46:12.840Z,6.23
2023-03-20T02:50:21.580Z,6.21
2023-03-20T02:54:34.417Z,6.22
2023-03-20T02:58:44.607Z,6.22
2023-03-20T03:02:52.687Z,6.21
2023-03-20T03:06:59.339Z,6.19
2023-03-20T03:11:06.397Z,6.19
2023-03-20T03:15:17.248Z,6.22
2023-03-20T03:19:25.506Z,6.20
2023-03-20T03:23:32.566Z,6.26
2023-03-20T03:27:40.228Z,6.26
2023-03-20T03:31:43.660Z,6.28
2023-03-20T03:35:47.493Z,6.31
2023-03-20T03:39:54.885Z,6.30
2023-03-20T03:44:08.929Z,6.30
2023-03-20T03:48:16.203Z,6.33
2023-03-20T03:52:23.947Z,6.34
2023-03-20T03:56:30.254Z,6.35
2023-03-20T04:00:36.066Z,6.33
2023-03-20T04:04:44.228Z,6.33
2023-03-20T04:08:47.009Z,6.39
2023-03-20T04:12:49.705Z,6.42
2023-03-20T04:16:53.702Z,6.39
2023-03-20T04:20:56.363Z,6.40
2023-03-20T04:24:59.036Z,6.42
2023-03-20T04:29:01.770Z,6.37
2023-03-20T04:33:05.830Z,6.29
2023-03-20T04:37:08.610Z,6.25
2023-03-20T04:41:11.314Z,6.28
2023-03-20T04:45:13.983Z,6.28
2023-03-20T04:49:18.255Z,6.27
2023-03-20T04:53:21.228Z,6.26
2023-03-20T04:57:23.928Z,6.24
2023-03-20T05:01:26.710Z,6.23
2023-03-20T05:05:30.752Z,6.24
2023-03-20T05:09:33.423Z,6.21
2023-03-20T05:13:36.248Z,6.21
2023-03-20T05:17:39.256Z,6.22
2023-03-20T05:21:43.288Z,6.21
2023-03-20T05:25:45.953Z,6.41
2023-03-20T05:29:48.628Z,6.86
2023-03-20T05:33:51.367Z,7.07
2023-03-20T05:37:55.371Z,7.31
2023-03-20T05:41:58.257Z,7.41
2023-03-20T05:46:01.046Z,7.58
2023-03-20T05:50:03.810Z,7.08
2023-03-20T05:54:07.878Z,6.88
2023-03-20T05:58:10.557Z,6.79
2023-03-20T06:02:13.506Z,6.78
2023-03-20T06:06:16.482Z,6.72
2023-03-20T06:10:21.239Z,6.70
2023-03-20T06:14:24.004Z,6.75
2023-03-20T06:18:27.056Z,6.72
2023-03-20T06:22:29.777Z,6.65
2023-03-20T06:26:33.793Z,6.65
2023-03-20T06:30:37.240Z,6.78
2023-03-20T06:34:39.914Z,6.85
2023-03-20T06:38:42.624Z,6.91
2023-03-20T06:42:46.658Z,6.97
2023-03-20T06:46:49.423Z,7.06
2023-03-20T06:50:53.238Z,7.12
2023-03-20T06:54:56.440Z,7.21
2023-03-20T06:59:00.501Z,7.27
2023-03-20T07:03:03.709Z,7.27
2023-03-20T07:07:06.597Z,7.27
2023-03-20T07:11:10.077Z,7.32
2023-03-20T07:15:14.208Z,7.41
2023-03-20T07:19:16.941Z,7.45
2023-03-20T07:23:20.017Z,7.50
2023-03-20T07:27:23.237Z,7.52
2023-03-20T07:31:29.762Z,7.62
2023-03-20T07:35:32.591Z,7.68
2023-03-20T07:39:35.303Z,7.70
2023-03-20T07:43:37.984Z,7.63
2023-03-20T07:47:44.232Z,7.59
2023-03-20T07:51:47.311Z,7.59
2023-03-20T07:55:50.025Z,7.61
2023-03-20T07:59:52.685Z,7.62
2023-03-20T08:03:57.129Z,7.64
2023-03-20T08:07:59.916Z,7.61
2023-03-20T08:12:02.930Z,7.77
2023-03-20T08:16:06.147Z,7.85
2023-03-20T08:20:11.690Z,7.95
2023-03-20T08:24:14.418Z,8.04
2023-03-20T08:28:17.654Z,8.20
2023-03-20T08:32:20.435Z,8.58
2023-03-20T08:36:25.382Z,8.62
2023-03-20T08:40:28.234Z,8.60
2023-03-20T08:44:30.925Z,8.69
2023-03-20T08:48:33.920Z,9.18
2023-03-20T08:52:37.968Z,9.37
2023-03-20T08:56:40.599Z,9.48
2023-03-20T09:00:43.450Z,9.93
2023-03-20T09:04:46.175Z,9.94
2023-03-20T09:08:50.328Z,10.25
2023-03-20T09:12:53.019Z,10.62
2023-03-20T09:16:56.062Z,10.97
2023-03-20T09:20:58.789Z,10.79
2023-03-20T09:25:02.929Z,10.80
2023-03-20T09:29:06.345Z,11.28
2023-03-20T09:33:09.156Z,11.09
2023-03-20T09:37:11.963Z,11.58
2023-03-20T09:41:21.576Z,11.74
2023-03-20T09:45:40.739Z,11.43
2023-03-20T09:49:49.451Z,11.63
2023-03-20T09:53:59.223Z,11.66
2023-03-20T09:58:13.275Z,11.51
2023-03-20T10:02:24.373Z,11.52
2023-03-20T10:06:27.417Z,11.85
2023-03-20T10:10:37.901Z,12.01
2023-03-20T10:14:54.370Z,12.14
2023-03-20T10:19:04.670Z,12.58
2023-03-20T10:23:08.968Z,12.81
2023-03-20T10:27:19.149Z,12.76
2023-03-20T10:31:34.862Z,13.16
2023-03-20T10:35:45.596Z,13.15
2023-03-20T10:39:58.575Z,12.81
2023-03-20T10:44:02.266Z,12.90
2023-03-20T10:48:15.968Z,12.92
2023-03-20T10:52:21.775Z,13.10
2023-03-20T10:56:30.126Z,13.72
2023-03-20T11:00:34.047Z,13.93
2023-03-20T11:04:38.476Z,14.52
2023-03-20T11:08:43.193Z,14.72
2023-03-20T11:12:47.395Z,13.81
2023-03-20T11:16:51.925Z,12.97
2023-03-20T11:20:57.668Z,12.77
2023-03-20T11:25:02.879Z,12.66
2023-03-20T11:29:09.085Z,12.56
2023-03-20T11:33:12.131Z,12.33
2023-03-20T11:37:26.117Z,12.25
2023-03-20T11:41:30.140Z,12.49
2023-03-20T11:45:36.510Z,12.81
2023-03-20T11:49:50.490Z,13.22
2023-03-20T11:54:01.892Z,14.10
2023-03-20T11:58:06.499Z,14.10
2023-03-20T12:02:22.603Z,13.23
2023-03-20T12:06:27.900Z,12.42
2023-03-20T12:10:39.463Z,12.07
2023-03-20T12:14:48.900Z,11.86
2023-03-20T12:18:55.976Z,11.59
2023-03-20T12:23:05.647Z,11.46
2023-03-20T12:27:20.997Z,11.27
2023-03-20T12:31:27.509Z,11.21
2023-03-20T12:35:32.027Z,11.14
2023-03-20T12:39:41.383Z,11.16
2023-03-20T12:44:15.071Z,11.21
2023-03-20T12:48:32.718Z,11.16
2023-03-20T12:52:46.471Z,11.25
2023-03-20T12:57:00.152Z,11.33
2023-03-20T13:01:09.565Z,11.42
2023-03-20T13:05:23.168Z,11.63
2023-03-20T13:09:50.109Z,11.84
2023-03-20T13:13:57.886Z,12.02
2023-03-20T13:18:09.969Z,12.19
2023-03-20T13:22:20.066Z,12.34
2023-03-20T13:26:31.196Z,12.43
2023-03-20T13:30:44.042Z,12.20
2023-03-20T13:35:05.708Z,12.17
2023-03-20T13:39:17.098Z,12.22
2023-03-20T13:43:29.117Z,12.15
2023-03-20T13:47:33.822Z,12.27
2023-03-20T13:51:43.777Z,12.19
2023-03-20T13:55:54.261Z,12.14
2023-03-20T14:00:05.576Z,12.11
2023-03-20T14:04:15.500Z,12.08
2023-03-20T14:08:33.569Z,12.04
2023-03-20T14:12:36.344Z,11.99
2023-03-20T14:16:39.181Z,11.94
2023-03-20T14:20:43.681Z,11.89
2023-03-20T14:24:58.062Z,11.87
2023-03-20T14:29:02.757Z,11.90
2023-03-20T14:33:08.656Z,11.91
2023-03-20T14:37:26.941Z,11.85
2023-03-20T14:41:40.928Z,11.81
2023-03-20T14:45:48.379Z,11.81
2023-03-20T14:49:56.015Z,11.77
2023-03-20T14:54:19.404Z,11.75
2023-03-20T14:58:48.926Z,11.73
2023-03-20T15:02:53.812Z,11.61
2023-03-20T15:06:59.907Z,11.64
2023-03-20T15:11:08.751Z,11.67
2023-03-20T15:15:25.906Z,11.63
2023-03-20T15:19:29.476Z,11.58
2023-03-20T15:23:32.216Z,11.53
2023-03-20T15:27:35.105Z,11.45
2023-03-20T15:31:40.694Z,11.47
2023-03-20T15:35:43.625Z,11.48
2023-03-20T15:39:48.104Z,11.50
2023-03-20T15:43:50.819Z,11.49
2023-03-20T15:48:01.101Z,11.46
2023-03-20T15:52:07.661Z,11.51
2023-03-20T15:56:18.749Z,11.55
2023-03-20T16:00:27.983Z,11.53
2023-03-20T16:04:32.163Z,11.51
2023-03-20T16:08:35.832Z,11.47
2023-03-20T16:12:38.584Z,11.44
2023-03-20T16:16:41.742Z,11.43
2023-03-20T16:20:52.319Z,11.41
2023-03-20T16:24:58.180Z,11.36
2023-03-20T16:29:02.558Z,11.30
2023-03-20T16:33:08.164Z,11.26
2023-03-20T16:37:26.383Z,11.23
2023-03-20T16:41:32.111Z,11.20
2023-03-20T16:45:36.141Z,11.19
2023-03-20T16:50:06.557Z,11.18
2023-03-20T16:54:20.606Z,11.09
2023-03-20T16:58:25.662Z,11.02
2023-03-20T17:02:33.109Z,11.00
2023-03-20T17:06:44.483Z,10.89
2023-03-20T17:10:51.949Z,10.84
2023-03-20T17:14:54.672Z,10.82
2023-03-20T17:19:01.561Z,10.75
2023-03-20T17:23:05.096Z,10.71
2023-03-20T17:27:12.527Z,10.64
2023-03-20T17:31:16.407Z,10.60
2023-03-20T17:35:19.190Z,10.62
2023-03-20T17:39:22.463Z,10.60
2023-03-20T17:43:26.505Z,10.58
2023-03-20T17:47:31.102Z,10.63
2023-03-20T17:51:34.721Z,10.59
2023-03-20T17:55:37.513Z,10.60
2023-03-20T17:59:41.772Z,10.61
2023-03-20T18:03:44.915Z,10.60
2023-03-20T18:07:47.649Z,10.55
2023-03-20T18:11:50.460Z,10.52
2023-03-20T18:15:56.283Z,10.46
2023-03-20T18:19:59.025Z,10.39
2023-03-20T18:24:01.712Z,10.34
2023-03-20T18:28:06.347Z,10.22
2023-03-20T18:32:10.459Z,10.16
2023-03-20T18:36:16.460Z,10.12
2023-03-20T18:40:21.254Z,10.07
2023-03-20T18:44:23.964Z,10.06
2023-03-20T18:48:30.548Z,10.00
2023-03-20T18:52:33.230Z,9.97
2023-03-20T18:56:37.753Z,9.94
2023-03-20T19:00:41.736Z,9.86
2023-03-20T19:04:45.956Z,9.76
2023-03-20T19:08:49.468Z,9.64
2023-03-20T19:12:52.265Z,9.54
2023-03-20T19:16:54.928Z,9.46
2023-03-20T19:20:59.354Z,9.39
2023-03-20T19:25:02.041Z,9.34
2023-03-20T19:29:09.109Z,9.25
2023-03-20T19:33:12.119Z,9.18
2023-03-20T19:37:16.223Z,9.09
2023-03-20T19:41:20.175Z,9.00
2023-03-20T19:45:23.123Z,8.97
2023-03-20T19:49:30.701Z,8.90
2023-03-20T19:53:35.032Z,8.86
2023-03-20T19:57:37.753Z,8.83
2023-03-20T20:01:40.473Z,8.72
2023-03-20T20:05:43.188Z,8.52
2023-03-20T20:09:47.225Z,8.36
2023-03-20T20:14:08.089Z,8.31
2023-03-20T20:18:13.360Z,8.26
2023-03-20T20:22:25.329Z,8.26
2023-03-20T20:26:31.355Z,8.20
2023-03-20T20:30:35.277Z,8.16
2023-03-20T20:39:03.981Z,8.02
2023-03-20T20:43:10.658Z,7.94
2023-03-20T20:47:14.128Z,7.84
2023-03-20T20:51:19.615Z,7.69
2023-03-20T20:55:24.214Z,7.58
2023-03-20T20:59:29.635Z,7.52
2023-03-20T21:03:32.383Z,7.51
2023-03-20T21:07:35.709Z,7.45
2023-03-20T21:11:38.621Z,7.42
2023-03-20T21:15:43.373Z,7.42
2023-03-20T21:19:46.700Z,7.39
2023-03-20T21:23:49.853Z,7.37
2023-03-20T21:27:52.523Z,7.38
2023-03-20T21:31:56.594Z,7.39
2023-03-20T21:35:59.640Z,7.36
2023-03-20T21:40:03.062Z,7.37
2023-03-20T21:44:05.967Z,7.36
2023-03-20T21:48:45.745Z,7.33
2023-03-20T21:57:52.358Z,7.30
2023-03-20T22:06:19.497Z,7.23
2023-03-20T22:10:55.827Z,7.23
2023-03-20T22:24:05.764Z,7.09
2023-03-20T22:28:16.984Z,7.07
2023-03-20T22:32:40.977Z,7.02
2023-03-20T22:45:15.221Z,6.86
2023-03-20T22:49:18.199Z,6.81
2023-03-20T22:53:21.045Z,6.77
2023-03-20T22:57:35.006Z,6.68
2023-03-20T23:01:44.827Z,6.58
2023-03-20T23:05:47.632Z,6.57
2023-03-20T23:09:50.529Z,6.59
2023-03-20T23:13:54.638Z,6.62
2023-03-20T23:17:57.448Z,6.64
2023-03-20T23:22:00.730Z,6.62
2023-03-20T23:26:05.812Z,6.66
2023-03-20T23:30:11.244Z,6.66
2023-03-20T23:34:15.662Z,6.65
2023-03-20T23:38:19.449Z,6.64
2023-03-20T23:42:30.368Z,6.60
2023-03-20T23:46:35.006Z,6.62
2023-03-20T23:50:51.738Z,6.60
2023-03-20T23:54:55.525Z,6.61
2023-03-20T23:59:03.260Z,6.60
